Time;durP1;ratioP1;P1;durP2;ratioP2;P2;SDS_P1;SDS_P2;PMS_P1;PMS_P2;Temp;Humidity;BMP_temperature;BMP_pressure;BME280_temperature;BME280_humidity;BME280_pressure;Samples;Min_cycle;Max_cycle;Signal;HPM_P1;HPM_P2
2023/01/12 00:00:10;;;;;;;13.75;1.90;;;8.00;99.90;;;;;;7300418;32;20403;-59
2023/01/12 00:04:13;;;;;;;12.60;2.17;;;8.00;99.90;;;;;;7286426;32;20108;-58
2023/01/12 00:08:15;;;;;;;11.15;1.90;;;8.00;99.90;;;;;;7296874;32;20112;-59
2023/01/12 00:12:16;;;;;;;16.27;1.80;;;7.90;99.90;;;;;;7302565;32;20130;-59
2023/01/12 00:16:33;;;;;;;12.02;1.67;;;7.90;99.90;;;;;;7301725;32;20304;-58
2023/01/12 00:20:35;;;;;;;14.55;1.60;;;7.90;99.90;;;;;;7298346;32;20198;-58
2023/01/12 00:24:43;;;;;;;7.65;1.73;;;7.90;99.90;;;;;;7299298;32;20509;-58
2023/01/12 00:28:44;;;;;;;15.25;1.92;;;7.90;99.90;;;;;;7300299;32;20120;-58
2023/01/12 00:32:48;;;;;;;13.95;1.85;;;7.90;99.90;;;;;;7297172;32;20222;-58
2023/01/12 00:36:50;;;;;;;13.48;1.70;;;7.90;99.90;;;;;;7300713;32;20112;-59
2023/01/12 00:40:51;;;;;;;11.18;1.80;;;7.90;99.90;;;;;;7300795;32;20170;-58
2023/01/12 00:49:14;;;;;;;10.52;1.48;;;7.90;99.90;;;;;;7296780;32;20108;-59
2023/01/12 00:53:15;;;;;;;9.95;1.70;;;7.90;99.90;;;;;;7299241;32;20103;-58
2023/01/12 00:57:18;;;;;;;9.30;1.50;;;8.00;99.90;;;;;;7299734;32;20443;-59
2023/01/12 01:01:19;;;;;;;11.50;2.05;;;8.00;99.90;;;;;;7301743;32;20218;-58
2023/01/12 01:05:21;;;;;;;12.73;1.83;;;8.00;99.90;;;;;;7293286;32;20556;-59
2023/01/12 01:09:23;;;;;;;11.38;1.95;;;8.00;99.90;;;;;;7299103;32;20104;-59
2023/01/12 01:13:25;;;;;;;10.93;2.05;;;8.00;99.90;;;;;;7296302;32;20442;-59
2023/01/12 01:17:27;;;;;;;13.80;2.20;;;8.00;99.90;;;;;;7294735;32;20104;-59
2023/01/12 01:21:29;;;;;;;13.48;1.70;;;8.00;99.90;;;;;;7300332;32;20362;-59
2023/01/12 01:25:31;;;;;;;11.55;1.98;;;8.10;99.90;;;;;;7293421;32;20198;-58
2023/01/12 01:29:33;;;;;;;9.77;2.08;;;8.10;99.90;;;;;;7297801;32;20331;-58
2023/01/12 01:33:35;;;;;;;13.57;1.85;;;8.10;99.90;;;;;;7299435;32;20433;-58
2023/01/12 01:37:37;;;;;;;13.23;1.70;;;8.20;99.90;;;;;;7298741;32;20133;-58
2023/01/12 01:41:39;;;;;;;14.23;1.95;;;8.20;99.90;;;;;;7298874;32;20601;-59
2023/01/12 01:45:56;;;;;;;14.75;2.17;;;8.30;99.90;;;;;;7298250;32;20207;-58
2023/01/12 01:49:59;;;;;;;13.88;2.33;;;8.30;99.90;;;;;;7298041;32;20116;-59
2023/01/12 01:54:02;;;;;;;13.43;2.25;;;8.30;99.90;;;;;;7297943;32;20608;-59
2023/01/12 01:58:09;;;;;;;14.10;1.90;;;8.40;99.90;;;;;;7297688;32;20217;-58
2023/01/12 02:02:11;;;;;;;9.93;1.98;;;8.40;99.90;;;;;;7298894;32;20508;-58
2023/01/12 02:06:13;;;;;;;13.77;2.22;;;8.40;99.90;;;;;;7297669;32;20128;-59
2023/01/12 02:10:16;;;;;;;16.40;2.03;;;8.40;99.90;;;;;;7298676;32;20905;-59
2023/01/12 02:18:52;;;;;;;13.82;2.15;;;8.40;99.90;;;;;;7297835;32;20399;-59
2023/01/12 02:23:12;;;;;;;11.68;2.10;;;8.50;99.90;;;;;;7293430;32;20548;-59
2023/01/12 02:27:55;;;;;;;9.82;1.50;;;8.50;99.90;;;;;;7291132;32;20416;-59
2023/01/12 02:31:57;;;;;;;16.30;1.98;;;8.60;99.90;;;;;;7226690;32;20559;-59
2023/01/12 02:36:13;;;;;;;14.65;2.28;;;8.60;99.90;;;;;;7299370;32;20827;-59
2023/01/12 02:40:37;;;;;;;13.70;2.30;;;8.60;99.90;;;;;;7292903;32;20112;-59
2023/01/12 02:44:48;;;;;;;11.23;2.30;;;8.60;99.90;;;;;;7295780;32;20228;-59
2023/01/12 02:48:56;;;;;;;14.05;2.50;;;8.60;99.90;;;;;;7295265;32;20158;-59
2023/01/12 02:53:06;;;;;;;11.20;1.95;;;8.50;99.90;;;;;;7297868;32;20435;-59
2023/01/12 02:57:09;;;;;;;13.15;2.45;;;8.50;99.90;;;;;;7298745;32;20558;-58
2023/01/12 03:01:14;;;;;;;14.07;2.08;;;8.40;99.90;;;;;;7289726;32;20569;-59
2023/01/12 03:05:16;;;;;;;15.15;2.03;;;8.40;99.90;;;;;;7293420;32;20132;-59
2023/01/12 03:09:18;;;;;;;13.75;1.90;;;8.30;99.90;;;;;;7298204;32;20504;-58
2023/01/12 03:13:22;;;;;;;20.30;2.40;;;8.30;99.90;;;;;;7274984;32;20127;-59
2023/01/12 03:17:33;;;;;;;16.65;2.17;;;8.30;99.90;;;;;;7294998;32;20165;-58
2023/01/12 03:21:39;;;;;;;11.63;2.20;;;8.30;99.90;;;;;;7295823;32;20167;-58
2023/01/12 03:25:43;;;;;;;13.70;1.90;;;8.30;99.90;;;;;;7299792;32;20120;-59
2023/01/12 03:29:51;;;;;;;16.30;2.12;;;8.30;99.90;;;;;;7297565;32;20124;-59
2023/01/12 03:33:53;;;;;;;18.73;2.10;;;8.30;99.90;;;;;;7292874;32;20099;-58
2023/01/12 03:38:16;;;;;;;14.57;2.30;;;8.30;99.90;;;;;;7290468;32;20409;-59
2023/01/12 03:42:28;;;;;;;14.52;1.90;;;8.30;99.90;;;;;;7283484;32;20151;-59
2023/01/12 03:46:41;;;;;;;13.48;1.77;;;8.30;99.90;;;;;;7295102;32;20593;-59
2023/01/12 03:50:52;;;;;;;10.10;1.85;;;8.30;99.90;;;;;;7294370;32;20473;-58
2023/01/12 03:54:57;;;;;;;16.95;2.53;;;8.30;99.90;;;;;;7294269;32;20130;-59
2023/01/12 03:58:59;;;;;;;14.70;2.28;;;8.30;99.90;;;;;;7291813;32;20134;-59
2023/01/12 04:03:03;;;;;;;10.38;1.40;;;8.30;99.90;;;;;;7296338;32;20129;-59
2023/01/12 04:07:05;;;;;;;12.13;1.50;;;8.30;99.90;;;;;;7301233;32;20116;-59
2023/01/12 04:15:28;;;;;;;16.85;2.10;;;8.30;99.90;;;;;;7295690;32;20215;-59
2023/01/12 04:19:29;;;;;;;11.57;1.58;;;8.30;99.90;;;;;;7291646;32;20202;-59
2023/01/12 04:23:31;;;;;;;11.00;1.40;;;8.30;99.90;;;;;;7298762;32;20674;-59
2023/01/12 04:27:32;;;;;;;8.80;1.25;;;8.40;99.90;;;;;;7293375;32;20148;-59
2023/01/12 04:31:34;;;;;;;11.55;1.70;;;8.40;99.90;;;;;;7291623;32;20514;-59
2023/01/12 04:35:36;;;;;;;18.20;1.92;;;8.40;99.90;;;;;;7282019;32;20356;-59
2023/01/12 04:39:38;;;;;;;9.93;1.48;;;8.40;99.90;;;;;;7299660;32;20250;-58
2023/01/12 04:43:39;;;;;;;7.50;1.60;;;8.40;99.90;;;;;;7296073;32;20857;-60
2023/01/12 04:47:42;;;;;;;8.68;1.12;;;8.40;99.90;;;;;;7295905;32;20330;-60
2023/01/12 04:51:44;;;;;;;16.02;1.70;;;8.40;99.90;;;;;;7297247;32;20157;-58
2023/01/12 04:55:48;;;;;;;15.18;1.87;;;8.40;99.90;;;;;;7300226;32;20112;-59
2023/01/12 04:59:50;;;;;;;4.78;1.15;;;8.30;99.90;;;;;;7296405;32;20203;-60
2023/01/12 05:03:55;;;;;;;6.12;1.00;;;8.30;99.90;;;;;;7281514;32;20549;-59
2023/01/12 05:12:21;;;;;;;11.95;1.55;;;8.20;99.90;;;;;;7289105;32;20686;-59
2023/01/12 05:16:23;;;;;;;7.70;1.50;;;8.20;99.90;;;;;;7292141;32;20747;-59
2023/01/12 05:20:25;;;;;;;8.55;1.70;;;8.20;99.90;;;;;;7290668;32;20499;-58
2023/01/12 05:24:27;;;;;;;7.70;1.10;;;8.20;99.90;;;;;;7297367;32;20722;-59
2023/01/12 05:28:30;;;;;;;6.72;1.20;;;8.20;99.90;;;;;;7294668;32;20111;-59
2023/01/12 05:32:39;;;;;;;8.18;1.10;;;8.10;99.90;;;;;;7295312;32;20179;-59
2023/01/12 05:36:40;;;;;;;6.40;1.20;;;8.10;99.90;;;;;;7282560;32;20249;-60
2023/01/12 05:40:42;;;;;;;6.50;1.08;;;8.10;99.90;;;;;;7297801;32;20598;-59
2023/01/12 05:44:44;;;;;;;9.23;1.90;;;8.10;99.90;;;;;;7298601;32;20133;-59
2023/01/12 05:48:46;;;;;;;7.05;1.42;;;8.00;99.90;;;;;;7296631;32;20153;-59
2023/01/12 05:52:50;;;;;;;5.22;1.17;;;8.00;99.90;;;;;;7299477;32;20134;-59
2023/01/12 05:56:54;;;;;;;7.07;1.12;;;8.00;99.90;;;;;;7297019;32;20219;-59
2023/01/12 06:00:55;;;;;;;7.07;1.02;;;8.00;99.90;;;;;;7284238;32;20119;-61
2023/01/12 06:04:57;;;;;;;7.60;1.30;;;8.00;99.90;;;;;;7298113;32;20145;-61
2023/01/12 06:09:00;;;;;;;8.98;1.55;;;7.90;99.90;;;;;;7295582;32;20112;-60
2023/01/12 06:17:23;;;;;;;6.82;1.10;;;7.90;99.90;;;;;;7294850;32;20226;-60
2023/01/12 06:21:24;;;;;;;6.22;1.27;;;7.90;99.90;;;;;;7299248;32;20262;-60
2023/01/12 06:25:28;;;;;;;5.53;1.08;;;7.90;99.90;;;;;;7294919;32;20584;-60
2023/01/12 06:29:30;;;;;;;9.23;1.37;;;7.90;99.90;;;;;;7293761;32;20161;-60
2023/01/12 06:33:32;;;;;;;8.50;1.23;;;7.80;99.90;;;;;;7295513;32;20131;-60
2023/01/12 06:37:34;;;;;;;8.15;1.35;;;7.80;99.90;;;;;;7294304;32;20163;-60
2023/01/12 06:45:56;;;;;;;3.05;0.70;;;7.80;99.90;;;;;;7298029;32;20130;-60
2023/01/12 06:49:58;;;;;;;9.60;1.10;;;7.80;99.90;;;;;;7290848;32;21126;-60
2023/01/12 06:54:00;;;;;;;8.05;1.52;;;7.90;99.90;;;;;;7297668;32;20206;-61
2023/01/12 06:58:03;;;;;;;9.65;1.55;;;7.90;99.90;;;;;;7296865;32;20430;-60
2023/01/12 07:02:05;;;;;;;8.65;1.42;;;7.90;99.90;;;;;;7284979;32;20130;-60
2023/01/12 07:06:07;;;;;;;5.62;1.15;;;8.00;99.90;;;;;;7287050;32;20107;-60
2023/01/12 07:10:11;;;;;;;8.98;1.33;;;8.00;99.90;;;;;;7299154;32;20116;-60
2023/01/12 07:14:13;;;;;;;7.47;1.00;;;8.00;99.90;;;;;;7294400;32;20215;-59
2023/01/12 07:18:15;;;;;;;4.62;0.80;;;8.10;99.90;;;;;;7294929;32;20195;-60
2023/01/12 07:22:16;;;;;;;5.78;1.10;;;8.10;99.90;;;;;;7297235;32;20527;-60
2023/01/12 07:26:18;;;;;;;7.47;1.10;;;8.10;99.90;;;;;;7291623;32;20826;-61
2023/01/12 07:30:21;;;;;;;8.85;1.77;;;8.20;99.90;;;;;;7289647;32;20278;-60
2023/01/12 07:34:22;;;;;;;6.35;1.50;;;8.20;99.90;;;;;;7293890;32;20141;-60
2023/01/12 07:38:28;;;;;;;10.73;1.17;;;8.20;99.90;;;;;;7297914;32;20607;-64
2023/01/12 07:42:32;;;;;;;12.00;1.67;;;8.20;99.90;;;;;;7294292;32;20104;-62
2023/01/12 07:46:34;;;;;;;10.63;1.20;;;8.30;99.90;;;;;;7291968;32;20143;-62
2023/01/12 07:50:36;;;;;;;8.63;1.33;;;8.40;99.90;;;;;;7298647;32;20871;-62
2023/01/12 07:54:38;;;;;;;10.57;1.37;;;8.40;99.90;;;;;;7300019;32;20293;-63
2023/01/12 07:58:39;;;;;;;6.43;1.27;;;8.50;99.90;;;;;;7296658;32;20757;-63
2023/01/12 08:02:41;;;;;;;9.00;1.70;;;8.50;99.90;;;;;;7297032;32;20104;-63
2023/01/12 08:06:43;;;;;;;9.55;1.17;;;8.50;99.90;;;;;;7299565;32;20133;-63
2023/01/12 08:10:47;;;;;;;12.15;1.83;;;8.50;99.90;;;;;;7295804;32;20266;-63
2023/01/12 08:14:48;;;;;;;5.72;1.30;;;8.60;99.90;;;;;;7284384;32;20138;-62
2023/01/12 08:18:55;;;;;;;7.15;1.33;;;8.60;99.90;;;;;;7297774;32;20199;-64
2023/01/12 08:23:08;;;;;;;9.45;1.60;;;8.60;99.90;;;;;;7285735;32;20569;-62
2023/01/12 08:27:10;;;;;;;8.82;0.90;;;8.60;99.90;;;;;;7299956;32;20194;-62
2023/01/12 08:31:14;;;;;;;5.45;1.37;;;8.60;99.90;;;;;;7300422;32;20437;-61
2023/01/12 08:35:19;;;;;;;6.80;1.30;;;8.70;99.90;;;;;;7299281;32;20277;-63
2023/01/12 08:39:21;;;;;;;8.00;1.30;;;8.70;99.90;;;;;;7303176;32;20597;-62
2023/01/12 08:44:09;;;;;;;5.32;0.77;;;8.70;99.90;;;;;;7301045;32;20259;-62
2023/01/12 08:47:44;;;;;;;7.22;1.12;;;8.80;99.90;;;;;;7286918;32;20131;-62
2023/01/12 08:51:46;;;;;;;8.60;0.88;;;8.80;99.90;;;;;;7293599;32;20576;-62
2023/01/12 08:55:52;;;;;;;5.32;0.93;;;8.80;99.90;;;;;;7298057;32;20110;-62
2023/01/12 08:59:56;;;;;;;4.62;0.82;;;8.90;99.90;;;;;;7300676;32;20229;-63
2023/01/12 09:03:59;;;;;;;4.75;0.90;;;8.90;99.90;;;;;;7293122;32;20115;-63
2023/01/12 09:08:00;;;;;;;6.00;1.00;;;8.90;99.90;;;;;;7299839;32;20267;-62
2023/01/12 09:12:03;;;;;;;6.85;0.93;;;8.90;99.90;;;;;;7300281;32;20211;-60
2023/01/12 09:16:07;;;;;;;3.40;0.70;;;8.90;99.90;;;;;;7295470;32;20178;-60
2023/01/12 09:20:14;;;;;;;5.53;0.80;;;9.00;99.90;;;;;;7292031;32;20220;-59
2023/01/12 09:24:16;;;;;;;5.87;0.82;;;9.10;99.90;;;;;;7298098;32;20104;-62
2023/01/12 09:28:17;;;;;;;3.62;0.90;;;9.00;99.90;;;;;;7292997;32;20108;-61
2023/01/12 09:32:19;;;;;;;2.47;0.80;;;9.10;99.90;;;;;;7292401;32;20108;-61
2023/01/12 09:36:32;;;;;;;7.25;1.20;;;9.10;99.90;;;;;;7291428;32;20221;-60
2023/01/12 09:40:34;;;;;;;6.70;0.68;;;9.20;99.90;;;;;;7298799;32;20282;-61
2023/01/12 09:48:59;;;;;;;5.85;0.95;;;9.30;99.90;;;;;;7299521;32;20500;-62
2023/01/12 09:53:06;;;;;;;4.53;0.70;;;9.30;99.90;;;;;;7290511;32;20265;-62
2023/01/12 09:57:16;;;;;;;6.12;1.02;;;9.30;99.90;;;;;;7292348;32;20548;-62
2023/01/12 10:01:30;;;;;;;6.18;1.10;;;9.40;99.90;;;;;;7284394;32;20197;-60
2023/01/12 10:06:01;;;;;;;6.12;1.12;;;9.40;99.90;;;;;;7295107;32;20360;-63
2023/01/12 10:10:03;;;;;;;5.12;1.00;;;9.40;99.90;;;;;;7290971;32;20867;-61
2023/01/12 10:14:24;;;;;;;6.95;1.37;;;9.50;99.90;;;;;;7297144;32;20092;-61
2023/01/12 10:18:35;;;;;;;6.32;1.05;;;9.50;99.90;;;;;;7293778;32;20101;-60
2023/01/12 10:22:52;;;;;;;5.68;1.10;;;9.60;99.90;;;;;;7297423;32;20192;-60
2023/01/12 10:27:01;;;;;;;6.85;1.73;;;9.60;99.90;;;;;;7292255;32;20127;-61
2023/01/12 10:31:03;;;;;;;7.18;1.33;;;9.60;99.90;;;;;;7292939;32;20557;-60
2023/01/12 10:35:13;;;;;;;6.70;1.70;;;9.70;99.90;;;;;;7297996;32;20561;-63
2023/01/12 10:39:37;;;;;;;5.57;1.20;;;9.70;99.90;;;;;;7297923;32;20229;-61
2023/01/12 10:43:41;;;;;;;7.70;1.15;;;9.70;99.90;;;;;;7292543;32;20219;-61
2023/01/12 10:47:45;;;;;;;5.47;0.82;;;9.70;99.90;;;;;;7295524;32;20156;-61
2023/01/12 10:52:08;;;;;;;6.82;1.00;;;9.70;99.90;;;;;;7294124;32;20179;-63
2023/01/12 10:56:25;;;;;;;4.87;0.80;;;9.70;99.90;;;;;;7294405;32;20466;-60
2023/01/12 11:00:28;;;;;;;6.68;0.80;;;9.70;99.90;;;;;;7297462;32;20130;-60
2023/01/12 11:04:35;;;;;;;4.22;0.90;;;9.70;99.90;;;;;;7297061;32;20127;-61
2023/01/12 11:08:37;;;;;;;5.93;1.35;;;9.70;99.90;;;;;;7294758;32;20327;-60
2023/01/12 11:12:39;;;;;;;4.05;0.70;;;9.80;99.90;;;;;;7281482;32;20643;-60
2023/01/12 11:16:48;;;;;;;6.45;1.00;;;9.80;99.90;;;;;;7301731;32;20114;-61
2023/01/12 11:20:55;;;;;;;4.07;0.70;;;9.90;99.90;;;;;;7299522;32;20524;-61
2023/01/12 11:25:19;;;;;;;8.13;1.00;;;9.90;99.90;;;;;;7297470;32;20122;-60
2023/01/12 11:29:40;;;;;;;6.57;1.10;;;9.90;99.90;;;;;;7299187;32;20141;-61
2023/01/12 11:33:45;;;;;;;4.47;0.85;;;9.90;99.90;;;;;;7293315;32;20095;-60
2023/01/12 11:37:47;;;;;;;2.92;0.70;;;9.90;99.90;;;;;;7294181;32;20118;-60
2023/01/12 11:46:14;;;;;;;4.40;0.70;;;10.00;99.90;;;;;;7291429;32;20134;-60
2023/01/12 11:50:28;;;;;;;5.65;0.98;;;10.00;99.90;;;;;;7293441;32;20118;-60
2023/01/12 11:54:31;;;;;;;4.32;0.80;;;10.00;99.90;;;;;;7299508;32;20478;-59
2023/01/12 11:58:49;;;;;;;4.47;1.17;;;10.00;99.90;;;;;;7299640;32;20183;-61
2023/01/12 12:03:23;;;;;;;6.53;0.93;;;10.00;99.90;;;;;;7297671;32;20104;-61
2023/01/12 12:07:37;;;;;;;4.50;0.90;;;10.00;99.90;;;;;;7302310;32;20204;-60
2023/01/12 12:11:59;;;;;;;6.53;1.05;;;10.10;99.90;;;;;;7298555;32;20510;-60
2023/01/12 12:16:01;;;;;;;7.87;1.12;;;10.10;99.90;;;;;;7297122;32;20270;-61
2023/01/12 12:20:19;;;;;;;7.53;0.80;;;10.10;99.90;;;;;;7298247;32;20827;-60
2023/01/12 12:24:47;;;;;;;6.53;0.73;;;10.00;99.90;;;;;;7294217;32;20099;-61
2023/01/12 12:29:15;;;;;;;1.83;0.62;;;10.00;99.90;;;;;;7304141;32;20123;-60
2023/01/12 12:33:37;;;;;;;2.87;0.70;;;10.10;99.90;;;;;;7299776;32;20128;-60
2023/01/12 12:37:42;;;;;;;2.10;0.60;;;10.10;99.90;;;;;;7300691;32;20122;-60
2023/01/12 12:46:44;;;;;;;8.30;0.70;;;10.10;99.90;;;;;;7295521;32;20129;-60
2023/01/12 12:51:07;;;;;;;1.15;0.43;;;10.10;99.90;;;;;;7235798;32;20566;-59
2023/01/12 12:55:11;;;;;;;5.07;0.68;;;10.10;99.90;;;;;;7299921;32;20131;-60
2023/01/12 12:59:32;;;;;;;2.45;0.40;;;10.10;99.90;;;;;;7301395;32;20278;-60
2023/01/12 13:03:39;;;;;;;1.50;0.30;;;10.20;99.90;;;;;;7300851;32;20189;-60
2023/01/12 13:07:44;;;;;;;2.42;0.85;;;10.10;99.90;;;;;;7300305;32;20179;-60
2023/01/12 13:11:53;;;;;;;3.95;0.40;;;10.10;99.90;;;;;;7301478;32;20470;-59
2023/01/12 13:16:28;;;;;;;1.73;0.40;;;10.20;99.90;;;;;;7300705;32;20406;-59
2023/01/12 13:20:51;;;;;;;4.18;0.60;;;10.20;99.90;;;;;;7295982;32;20108;-60
2023/01/12 13:24:55;;;;;;;2.20;0.50;;;10.10;99.90;;;;;;7300871;32;20122;-60
2023/01/12 13:29:22;;;;;;;2.75;0.70;;;10.10;99.90;;;;;;7301681;32;20651;-60
2023/01/12 13:33:26;;;;;;;2.67;0.43;;;10.10;99.90;;;;;;7300198;32;20573;-60
2023/01/12 13:37:57;;;;;;;2.28;0.68;;;10.10;99.90;;;;;;7284567;32;20185;-60
2023/01/12 13:46:22;;;;;;;2.20;0.50;;;10.00;99.90;;;;;;7294862;32;20124;-61
2023/01/12 13:50:26;;;;;;;3.08;0.50;;;10.00;99.90;;;;;;7292842;32;20726;-60
2023/01/12 13:54:28;;;;;;;0.50;0.20;;;10.00;99.90;;;;;;7296114;32;20096;-60
2023/01/12 13:58:42;;;;;;;2.87;0.50;;;10.00;99.90;;;;;;7283774;32;20215;-63
2023/01/12 14:02:44;;;;;;;2.37;0.50;;;10.00;99.90;;;;;;7292989;32;20234;-62
2023/01/12 14:07:21;;;;;;;1.70;0.60;;;10.00;99.90;;;;;;7289270;32;20111;-62
2023/01/12 14:11:58;;;;;;;2.53;0.47;;;10.00;99.90;;;;;;7293741;32;20096;-62
2023/01/12 14:20:27;;;;;;;1.20;0.30;;;10.00;99.90;;;;;;7294633;32;20250;-60
2023/01/12 14:24:29;;;;;;;1.62;0.40;;;9.90;99.90;;;;;;7295033;32;20686;-61
2023/01/12 14:28:32;;;;;;;5.15;0.50;;;9.90;99.90;;;;;;7297204;32;20135;-60
2023/01/12 14:32:33;;;;;;;4.00;0.60;;;10.00;99.90;;;;;;7294810;32;20130;-60
2023/01/12 14:36:41;;;;;;;1.58;0.40;;;10.10;99.90;;;;;;7293685;32;20104;-61
2023/01/12 14:40:55;;;;;;;1.05;0.37;;;10.10;99.90;;;;;;7280701;32;20138;-62
2023/01/12 14:49:27;;;;;;;2.00;0.50;;;10.00;99.90;;;;;;7294304;32;20172;-61
2023/01/12 14:53:37;;;;;;;1.05;0.30;;;10.00;99.90;;;;;;7294576;32;20100;-61
2023/01/12 14:57:39;;;;;;;1.67;0.40;;;9.90;99.90;;;;;;7293504;32;20270;-63
2023/01/12 15:01:41;;;;;;;5.10;0.60;;;9.90;99.90;;;;;;7293290;32;20559;-62
2023/01/12 15:05:43;;;;;;;1.17;0.30;;;9.90;99.90;;;;;;7290983;32;20100;-61
2023/01/12 15:09:54;;;;;;;1.35;0.37;;;9.90;99.90;;;;;;7288501;32;20541;-63
2023/01/12 15:13:57;;;;;;;1.00;0.40;;;9.90;99.90;;;;;;7289300;32;20116;-63
2023/01/12 15:26:45;;;;;;;1.58;0.30;;;9.90;99.90;;;;;;7292338;32;20179;-61
2023/01/12 15:30:56;;;;;;;1.60;0.40;;;9.90;99.90;;;;;;7294125;32;20701;-63
2023/01/12 15:34:59;;;;;;;1.48;0.32;;;9.80;99.90;;;;;;7292471;32;20104;-62
2023/01/12 15:39:01;;;;;;;1.37;0.25;;;9.80;99.90;;;;;;7295934;32;20250;-62
2023/01/12 15:43:03;;;;;;;2.45;0.30;;;9.80;99.90;;;;;;7288093;32;20136;-61
2023/01/12 15:47:06;;;;;;;4.05;0.30;;;10.00;99.90;;;;;;7291125;32;20104;-61
2023/01/12 15:51:12;;;;;;;0.47;0.20;;;10.10;99.90;;;;;;7291749;32;20642;-63
2023/01/12 15:55:17;;;;;;;2.57;0.30;;;10.10;99.90;;;;;;7294069;32;20573;-63
2023/01/12 15:59:19;;;;;;;2.70;0.50;;;10.00;99.90;;;;;;7297139;32;20115;-62
2023/01/12 16:03:21;;;;;;;2.03;0.57;;;9.90;99.90;;;;;;7293245;32;20203;-61
2023/01/12 16:07:42;;;;;;;2.92;0.50;;;9.90;99.90;;;;;;7294178;32;20504;-61
2023/01/12 16:11:44;;;;;;;1.27;0.50;;;9.80;99.90;;;;;;7300796;32;20131;-61
2023/01/12 16:15:46;;;;;;;1.75;0.50;;;9.80;99.90;;;;;;7302330;32;20104;-61
2023/01/12 16:19:48;;;;;;;2.40;0.50;;;9.90;99.90;;;;;;7299350;32;20155;-61
2023/01/12 16:23:50;;;;;;;2.10;0.45;;;9.90;99.90;;;;;;7300893;32;20099;-62
2023/01/12 16:27:56;;;;;;;2.70;0.40;;;9.90;99.90;;;;;;7302061;32;20326;-63
2023/01/12 16:31:57;;;;;;;1.83;0.43;;;9.80;99.90;;;;;;7292974;32;20111;-61
2023/01/12 16:36:00;;;;;;;0.82;0.30;;;9.80;99.90;;;;;;7301520;32;20164;-61
2023/01/12 16:40:02;;;;;;;5.45;0.60;;;9.90;99.90;;;;;;7301439;32;20221;-61
2023/01/12 16:44:04;;;;;;;1.45;0.50;;;9.90;99.90;;;;;;7300204;32;20610;-61
2023/01/12 16:48:07;;;;;;;2.37;0.57;;;9.90;99.90;;;;;;7302019;32;20635;-61
2023/01/12 16:52:13;;;;;;;3.30;0.68;;;9.80;99.90;;;;;;7301907;32;20206;-62
2023/01/12 16:56:15;;;;;;;3.03;0.63;;;9.90;99.90;;;;;;7296702;32;20467;-61
2023/01/12 17:00:18;;;;;;;2.30;0.55;;;9.90;99.90;;;;;;7302137;32;20179;-61
2023/01/12 17:04:20;;;;;;;2.17;0.45;;;9.90;99.90;;;;;;7293564;32;20116;-61
2023/01/12 17:08:22;;;;;;;2.25;0.40;;;9.90;99.90;;;;;;7297129;32;20249;-61
2023/01/12 17:12:23;;;;;;;2.10;0.50;;;9.90;99.90;;;;;;7297056;32;20503;-59
2023/01/12 17:16:29;;;;;;;3.75;0.43;;;10.00;99.90;;;;;;7296501;32;20508;-59
2023/01/12 17:20:31;;;;;;;2.28;0.60;;;9.90;99.90;;;;;;7292980;32;20097;-60
2023/01/12 17:24:38;;;;;;;3.12;0.73;;;10.00;99.90;;;;;;7296486;32;20146;-59
2023/01/12 17:28:40;;;;;;;1.60;0.50;;;10.00;99.90;;;;;;7293963;32;20111;-60
2023/01/12 17:32:41;;;;;;;1.35;0.47;;;10.00;99.90;;;;;;7293525;32;20181;-60
2023/01/12 17:36:43;;;;;;;3.78;0.50;;;10.00;99.90;;;;;;7288456;32;20138;-60
2023/01/12 17:40:45;;;;;;;1.37;0.60;;;10.00;99.90;;;;;;7288145;32;20490;-60
2023/01/12 17:44:46;;;;;;;2.70;0.55;;;10.00;99.90;;;;;;7294763;32;20230;-60
2023/01/12 17:48:48;;;;;;;2.15;0.60;;;9.90;99.90;;;;;;7298083;32;20145;-60
2023/01/12 17:52:51;;;;;;;2.97;0.93;;;10.00;99.90;;;;;;7283663;32;20447;-60
2023/01/12 17:56:52;;;;;;;2.97;0.70;;;9.90;99.90;;;;;;7296527;32;20224;-60
2023/01/12 18:00:54;;;;;;;1.58;0.73;;;9.90;99.90;;;;;;7293630;32;20577;-60
2023/01/12 18:04:56;;;;;;;2.97;0.93;;;9.80;99.90;;;;;;7297502;32;20400;-60
2023/01/12 18:09:00;;;;;;;2.55;0.60;;;9.80;99.90;;;;;;7298092;32;20495;-60
2023/01/12 18:13:02;;;;;;;2.80;0.70;;;9.80;99.90;;;;;;7295787;32;20254;-61
2023/01/12 18:17:04;;;;;;;2.25;0.50;;;9.90;99.90;;;;;;7290049;32;21048;-61
2023/01/12 18:21:08;;;;;;;2.80;0.73;;;9.80;99.90;;;;;;7294250;32;20175;-61
2023/01/12 18:25:09;;;;;;;3.70;0.60;;;9.70;99.90;;;;;;7294632;32;20100;-60
2023/01/12 18:29:11;;;;;;;2.92;0.77;;;9.70;99.90;;;;;;7294104;32;20119;-60
2023/01/12 18:33:13;;;;;;;3.55;0.73;;;9.80;99.90;;;;;;7295252;32;20096;-62
2023/01/12 18:37:15;;;;;;;2.72;0.85;;;9.70;99.90;;;;;;7293765;32;20213;-61
2023/01/12 18:45:39;;;;;;;2.80;0.50;;;9.70;99.90;;;;;;7288462;32;20230;-61
2023/01/12 18:49:42;;;;;;;1.30;0.60;;;9.70;99.90;;;;;;7297926;32;20125;-61
2023/01/12 18:53:44;;;;;;;2.85;0.70;;;9.70;99.90;;;;;;7290192;32;20400;-60
2023/01/12 18:57:46;;;;;;;3.35;0.70;;;9.70;99.90;;;;;;7292832;32;20130;-60
2023/01/12 19:01:47;;;;;;;2.45;1.20;;;9.70;99.90;;;;;;7295221;32;20150;-61
2023/01/12 19:06:09;;;;;;;1.90;0.93;;;9.70;99.90;;;;;;7286311;32;20109;-62
2023/01/12 19:10:11;;;;;;;2.30;0.70;;;9.70;99.90;;;;;;7277245;32;20564;-61
2023/01/12 19:18:36;;;;;;;3.03;0.60;;;9.70;99.90;;;;;;7296435;32;20104;-61
2023/01/12 19:31:19;;;;;;;4.22;0.70;;;9.70;99.90;;;;;;7292756;32;20130;-60
2023/01/12 19:35:21;;;;;;;3.10;0.70;;;9.70;99.90;;;;;;7299310;32;20505;-60
2023/01/12 19:39:40;;;;;;;2.72;0.80;;;9.70;99.90;;;;;;7291832;32;20150;-62
2023/01/12 19:43:47;;;;;;;1.90;0.70;;;9.70;99.90;;;;;;7301537;32;20123;-62
2023/01/12 19:47:49;;;;;;;2.58;0.60;;;9.60;99.90;;;;;;7302008;32;20179;-62
2023/01/12 19:51:50;;;;;;;4.18;0.90;;;9.70;99.90;;;;;;7304043;32;20126;-63
2023/01/12 19:55:52;;;;;;;3.37;0.88;;;9.70;99.90;;;;;;7299045;32;20153;-61
2023/01/12 19:59:54;;;;;;;2.33;0.65;;;9.60;99.90;;;;;;7297044;32;20237;-61
2023/01/12 20:03:55;;;;;;;5.90;1.20;;;9.70;99.90;;;;;;7298907;32;20198;-60
2023/01/12 20:07:57;;;;;;;2.28;0.80;;;9.60;99.90;;;;;;7294539;32;20237;-62
2023/01/12 20:11:59;;;;;;;1.98;0.60;;;9.60;99.90;;;;;;7288172;32;20108;-60
2023/01/12 20:16:08;;;;;;;2.62;0.80;;;9.60;99.90;;;;;;7296888;32;20495;-61
2023/01/12 20:20:11;;;;;;;3.20;0.70;;;9.60;99.90;;;;;;7297272;32;20431;-61
2023/01/12 20:24:13;;;;;;;2.00;0.70;;;9.60;99.90;;;;;;7299875;32;20100;-60
2023/01/12 20:28:15;;;;;;;2.60;0.70;;;9.60;99.90;;;;;;7299512;32;20165;-60
2023/01/12 20:32:17;;;;;;;2.67;0.75;;;9.60;99.90;;;;;;7303471;32;20118;-60
2023/01/12 20:36:19;;;;;;;1.55;0.60;;;9.60;99.90;;;;;;7304985;32;20552;-60
2023/01/12 20:40:21;;;;;;;5.00;1.05;;;9.50;99.90;;;;;;7290534;32;20142;-61
2023/01/12 20:44:22;;;;;;;1.55;0.70;;;9.50;99.90;;;;;;7298939;32;20206;-61
2023/01/12 20:48:24;;;;;;;4.55;0.60;;;9.50;99.90;;;;;;7298870;32;20216;-61
2023/01/12 20:52:27;;;;;;;20.05;13.05;;;9.50;99.90;;;;;;7300113;32;20179;-60
2023/01/12 20:56:28;;;;;;;1.42;0.55;;;9.40;99.90;;;;;;7299952;32;20131;-61
2023/01/12 21:00:30;;;;;;;3.55;0.88;;;9.50;99.90;;;;;;7299027;32;20130;-61
2023/01/12 21:04:32;;;;;;;4.93;0.55;;;9.40;99.90;;;;;;7301319;32;20134;-61
2023/01/12 21:08:34;;;;;;;1.87;0.70;;;9.50;99.90;;;;;;7298632;32;20095;-61
2023/01/12 21:12:36;;;;;;;2.20;0.80;;;9.40;99.90;;;;;;7300157;32;20460;-62
2023/01/12 21:16:37;;;;;;;2.65;0.65;;;9.50;99.90;;;;;;7296176;32;20235;-60
2023/01/12 21:20:41;;;;;;;1.98;0.75;;;9.50;99.90;;;;;;7293343;32;20124;-61
2023/01/12 21:24:42;;;;;;;1.35;0.65;;;9.50;99.90;;;;;;7294061;32;20104;-61
2023/01/12 21:28:45;;;;;;;1.55;0.50;;;9.60;99.90;;;;;;7299204;32;20190;-60
2023/01/12 21:32:47;;;;;;;1.15;0.50;;;9.60;99.90;;;;;;7300034;32;20161;-61
2023/01/12 21:36:49;;;;;;;1.10;0.55;;;9.60;99.90;;;;;;7285505;32;20158;-60
2023/01/12 21:40:51;;;;;;;3.42;0.80;;;9.60;99.90;;;;;;7297395;32;20096;-61
2023/01/12 21:44:52;;;;;;;1.48;0.70;;;9.60;99.90;;;;;;7295679;32;20157;-60
2023/01/12 21:48:54;;;;;;;2.78;1.10;;;9.60;99.90;;;;;;7300786;32;20216;-60
2023/01/12 21:52:56;;;;;;;1.67;1.00;;;9.60;99.90;;;;;;7295428;32;20111;-59
2023/01/12 21:56:58;;;;;;;1.73;0.90;;;9.60;99.90;;;;;;7293913;32;20123;-58
2023/01/12 22:01:09;;;;;;;1.77;1.00;;;9.70;99.90;;;;;;7292892;32;20558;-58
2023/01/12 22:05:12;;;;;;;4.65;1.20;;;9.70;99.90;;;;;;7290311;32;20104;-58
2023/01/12 22:09:14;;;;;;;2.28;1.15;;;9.60;99.90;;;;;;7296910;32;20218;-59
2023/01/12 22:13:16;;;;;;;2.95;0.75;;;9.60;99.90;;;;;;7297194;32;20139;-58
2023/01/12 22:17:18;;;;;;;2.60;0.90;;;9.70;99.90;;;;;;7294226;32;20273;-58
2023/01/12 22:21:20;;;;;;;2.12;0.70;;;9.70;99.90;;;;;;7294357;32;20572;-59
2023/01/12 22:25:22;;;;;;;1.33;0.60;;;9.60;99.90;;;;;;7294118;32;20149;-60
2023/01/12 22:29:24;;;;;;;1.70;0.70;;;9.70;99.90;;;;;;7293277;32;20724;-60
2023/01/12 22:33:27;;;;;;;2.15;0.70;;;9.70;99.90;;;;;;7295517;32;20100;-60
2023/01/12 22:37:29;;;;;;;4.25;0.62;;;9.80;99.90;;;;;;7295195;32;20122;-60
2023/01/12 22:41:31;;;;;;;1.55;0.40;;;9.80;99.90;;;;;;7290697;32;20212;-60
2023/01/12 22:45:34;;;;;;;1.67;0.43;;;9.80;99.90;;;;;;7278801;32;20297;-60